Погода Новое Место-над-Вагомна 2 недели

Тренчинский край, Словакия

16 - 29 июня
  • 16июня
    Сегодня
    +12°
    +24°
    Ясно и безоблачно
    ВремяПогодаТемператураВлажностьДавлениеВетер, м/сВероятность осадков
    02:00Пасмурно, дождь+18°C98 %743 мм1.7 м/с77 %
    05:00Пасмурно, дождь+17°C99 %743 мм2.6 м/с88 %
    08:00Пасмурно, дождь+17°C96 %743 мм2.5 м/с83 %
    11:00Небольшая облачность и лёгкий дождик+20°C74 %744 мм3.8 м/с58 %
    14:00Ясно и безоблачно+23°C59 %744 мм4.9 м/с28 %
    17:00Небольшая облачность+23°C56 %743 мм3.8 м/с22 %
    20:00Практически безоблачно+21°C77 %744 мм2.6 м/с5 %
    23:00Ясно и безоблачно+15°C87 %745 мм1.9 м/с2 %
  • 17июня
    Понедельник
    +15°
    +27°
    Ясно и безоблачно
    ВремяПогодаТемператураВлажностьДавлениеВетер, м/сВероятность осадков
    02:00Ясно и безоблачно+13°C91 %746 мм1.9 м/с2 %
    05:00Ясно и безоблачно+13°C94 %746 мм2.6 м/с2 %
    08:00Ясно и безоблачно+18°C82 %747 мм2.4 м/с2 %
    11:00Практически безоблачно+24°C54 %748 мм1.8 м/с2 %
    14:00Ясно и безоблачно+26°C52 %748 мм2.6 м/с6 %
    17:00Практически безоблачно+26°C54 %747 мм2.4 м/с1 %
    20:00Облачно с прояснениями+24°C77 %748 мм1.8 м/с2 %
    23:00Облачно с прояснениями+19°C64 %748 мм2.0 м/с1 %
  • 18июня
    Вторник
    +18°
    +30°
    Практически безоблачно
    ВремяПогодаТемператураВлажностьДавлениеВетер, м/сВероятность осадков
    02:00Облачно с прояснениями+16°C86 %748 мм1.5 м/с2 %
    05:00Ясно и безоблачно+15°C89 %748 мм1.8 м/с8 %
    08:00Облачно с прояснениями+21°C78 %749 мм2.1 м/с10 %
    11:00Практически безоблачно+26°C62 %749 мм4.2 м/с7 %
    14:00Практически безоблачно+28°C56 %749 мм4.6 м/с17 %
    17:00Практически безоблачно+30°C56 %748 мм4.1 м/с17 %
    20:00Ясно и безоблачно+26°C75 %748 мм3.0 м/с7 %
    23:00Практически безоблачно+22°C84 %748 мм2.5 м/с2 %
  • 19июня
    Среда
    +15°
    +30°
    Ясно и безоблачно
    ВремяПогодаТемператураВлажностьДавлениеВетер, м/сВероятность осадков
    02:00Ясно и безоблачно+19°C88 %748 мм2.0 м/с2 %
    05:00Ясно и безоблачно+18°C86 %747 мм2.5 м/с2 %
    08:00Ясно и безоблачно+23°C74 %748 мм3.1 м/с2 %
    11:00Ясно и безоблачно+27°C61 %748 мм4.3 м/с2 %
    14:00Ясно и безоблачно+29°C52 %748 мм6.0 м/с11 %
    17:00Ясно и безоблачно+28°C51 %747 мм4.8 м/с19 %
    20:00Ясно и безоблачно+26°C61 %747 мм2.9 м/с19 %
    23:00Ясно и безоблачно+21°C83 %748 мм2.2 м/с8 %
  • 20июня
    Четверг
    +17°
    +28°
    Облачно с прояснениями
    ВремяПогодаТемператураВлажностьДавлениеВетер, м/сВероятность осадков
    02:00Ясно и безоблачно+17°C86 %748 мм2.3 м/с2 %
    05:00Небольшая облачность+16°C94 %749 мм4.3 м/с2 %
    08:00Ясно и безоблачно+21°C80 %750 мм4.2 м/с2 %
    11:00Практически безоблачно+25°C66 %751 мм3.3 м/с2 %
    14:00Облачно с прояснениями+28°C54 %751 мм3.1 м/с2 %
    17:00Облачно с прояснениями+26°C55 %750 мм3.5 м/с2 %
    20:00Небольшая облачность+23°C80 %749 мм2.2 м/с2 %
    23:00Облачно с прояснениями+21°C90 %749 мм1.8 м/с2 %
Мы используем cookies
Соглашаюсь